sensor_id;sensor_type;location;lat;lon;timestamp;P1;durP1;ratioP1;P2;durP2;ratioP2
46563;SDS011;32291;52.010;4.446;2023-03-12T00:00:38;9.57;;;4.47;;
46563;SDS011;32291;52.010;4.446;2023-03-12T00:02:39;5.97;;;4.35;;
46563;SDS011;32291;52.010;4.446;2023-03-12T00:04:40;6.88;;;5.13;;
46563;SDS011;32291;52.010;4.446;2023-03-12T00:06:41;7.95;;;5.32;;
46563;SDS011;32291;52.010;4.446;2023-03-12T00:08:42;5.50;;;5.00;;
46563;SDS011;32291;52.010;4.446;2023-03-12T00:10:42;10.23;;;5.22;;
46563;SDS011;32291;52.010;4.446;2023-03-12T00:12:42;6.72;;;5.13;;
46563;SDS011;32291;52.010;4.446;2023-03-12T00:14:43;7.80;;;5.18;;
46563;SDS011;32291;52.010;4.446;2023-03-12T00:16:43;8.15;;;5.97;;
46563;SDS011;32291;52.010;4.446;2023-03-12T00:18:45;10.10;;;5.80;;
46563;SDS011;32291;52.010;4.446;2023-03-12T00:20:54;6.97;;;5.63;;
46563;SDS011;32291;52.010;4.446;2023-03-12T00:22:54;7.85;;;5.35;;
46563;SDS011;32291;52.010;4.446;2023-03-12T00:24:55;6.65;;;5.20;;
46563;SDS011;32291;52.010;4.446;2023-03-12T00:26:59;6.70;;;5.25;;
46563;SDS011;32291;52.010;4.446;2023-03-12T00:28:59;6.70;;;5.25;;
46563;SDS011;32291;52.010;4.446;2023-03-12T00:31:00;6.60;;;5.28;;
46563;SDS011;32291;52.010;4.446;2023-03-12T00:33:01;10.73;;;5.53;;
46563;SDS011;32291;52.010;4.446;2023-03-12T00:35:02;6.10;;;5.50;;
46563;SDS011;32291;52.010;4.446;2023-03-12T00:37:04;5.93;;;5.07;;
46563;SDS011;32291;52.010;4.446;2023-03-12T00:39:04;8.82;;;5.63;;
46563;SDS011;32291;52.010;4.446;2023-03-12T00:41:06;6.18;;;5.13;;
46563;SDS011;32291;52.010;4.446;2023-03-12T00:43:06;8.73;;;5.28;;
46563;SDS011;32291;52.010;4.446;2023-03-12T00:45:06;5.80;;;5.20;;
46563;SDS011;32291;52.010;4.446;2023-03-12T00:47:07;5.53;;;4.65;;
46563;SDS011;32291;52.010;4.446;2023-03-12T00:49:08;6.63;;;5.07;;
46563;SDS011;32291;52.010;4.446;2023-03-12T00:51:09;9.35;;;4.78;;
46563;SDS011;32291;52.010;4.446;2023-03-12T00:53:09;6.65;;;4.70;;
46563;SDS011;32291;52.010;4.446;2023-03-12T00:55:12;5.80;;;4.38;;
46563;SDS011;32291;52.010;4.446;2023-03-12T00:57:13;5.55;;;4.25;;
46563;SDS011;32291;52.010;4.446;2023-03-12T00:59:13;9.13;;;4.93;;
46563;SDS011;32291;52.010;4.446;2023-03-12T01:01:15;7.05;;;4.70;;
46563;SDS011;32291;52.010;4.446;2023-03-12T01:03:15;7.57;;;4.20;;
46563;SDS011;32291;52.010;4.446;2023-03-12T01:05:17;4.97;;;4.15;;
46563;SDS011;32291;52.010;4.446;2023-03-12T01:07:17;8.30;;;4.13;;
46563;SDS011;32291;52.010;4.446;2023-03-12T01:09:18;6.75;;;4.38;;
46563;SDS011;32291;52.010;4.446;2023-03-12T01:11:19;5.85;;;4.18;;
46563;SDS011;32291;52.010;4.446;2023-03-12T01:13:20;6.18;;;3.80;;
46563;SDS011;32291;52.010;4.446;2023-03-12T01:15:21;5.45;;;4.20;;
46563;SDS011;32291;52.010;4.446;2023-03-12T01:17:22;8.27;;;3.97;;
46563;SDS011;32291;52.010;4.446;2023-03-12T01:19:22;6.32;;;3.67;;
46563;SDS011;32291;52.010;4.446;2023-03-12T01:21:23;6.80;;;4.25;;
46563;SDS011;32291;52.010;4.446;2023-03-12T01:23:24;6.20;;;3.58;;
46563;SDS011;32291;52.010;4.446;2023-03-12T01:25:25;7.75;;;3.85;;
46563;SDS011;32291;52.010;4.446;2023-03-12T01:27:25;9.75;;;4.63;;
46563;SDS011;32291;52.010;4.446;2023-03-12T01:29:26;7.55;;;4.15;;
46563;SDS011;32291;52.010;4.446;2023-03-12T01:31:27;7.63;;;4.50;;
46563;SDS011;32291;52.010;4.446;2023-03-12T01:33:27;7.70;;;4.20;;
46563;SDS011;32291;52.010;4.446;2023-03-12T01:35:28;7.90;;;4.05;;
46563;SDS011;32291;52.010;4.446;2023-03-12T01:37:30;9.10;;;4.30;;
46563;SDS011;32291;52.010;4.446;2023-03-12T01:39:31;6.88;;;4.22;;
46563;SDS011;32291;52.010;4.446;2023-03-12T01:41:33;4.97;;;3.85;;
46563;SDS011;32291;52.010;4.446;2023-03-12T01:43:35;5.20;;;3.78;;
46563;SDS011;32291;52.010;4.446;2023-03-12T01:48:16;8.60;;;4.35;;
46563;SDS011;32291;52.010;4.446;2023-03-12T01:50:22;6.35;;;4.32;;
46563;SDS011;32291;52.010;4.446;2023-03-12T01:52:24;11.23;;;5.03;;
46563;SDS011;32291;52.010;4.446;2023-03-12T01:54:30;5.90;;;4.53;;
46563;SDS011;32291;52.010;4.446;2023-03-12T01:56:34;7.97;;;4.47;;
46563;SDS011;32291;52.010;4.446;2023-03-12T01:58:48;6.88;;;4.63;;
46563;SDS011;32291;52.010;4.446;2023-03-12T02:00:53;4.45;;;3.90;;
46563;SDS011;32291;52.010;4.446;2023-03-12T02:02:55;6.18;;;4.68;;
46563;SDS011;32291;52.010;4.446;2023-03-12T02:07:20;5.30;;;4.30;;
46563;SDS011;32291;52.010;4.446;2023-03-12T02:09:21;6.65;;;4.50;;
46563;SDS011;32291;52.010;4.446;2023-03-12T02:11:22;9.13;;;4.72;;
46563;SDS011;32291;52.010;4.446;2023-03-12T02:13:23;6.13;;;3.80;;
46563;SDS011;32291;52.010;4.446;2023-03-12T02:15:23;9.73;;;4.55;;
46563;SDS011;32291;52.010;4.446;2023-03-12T02:17:24;5.93;;;4.70;;
46563;SDS011;32291;52.010;4.446;2023-03-12T02:21:49;7.05;;;3.65;;
46563;SDS011;32291;52.010;4.446;2023-03-12T02:23:55;5.63;;;4.30;;
46563;SDS011;32291;52.010;4.446;2023-03-12T02:26:20;4.57;;;3.75;;
46563;SDS011;32291;52.010;4.446;2023-03-12T02:28:24;8.75;;;4.20;;
46563;SDS011;32291;52.010;4.446;2023-03-12T02:30:30;5.93;;;3.78;;
46563;SDS011;32291;52.010;4.446;2023-03-12T02:32:35;6.03;;;4.10;;
46563;SDS011;32291;52.010;4.446;2023-03-12T02:34:38;6.93;;;4.10;;
46563;SDS011;32291;52.010;4.446;2023-03-12T02:36:39;9.35;;;4.47;;
46563;SDS011;32291;52.010;4.446;2023-03-12T02:38:53;5.03;;;3.78;;
46563;SDS011;32291;52.010;4.446;2023-03-12T02:41:21;6.13;;;4.25;;
46563;SDS011;32291;52.010;4.446;2023-03-12T02:43:26;5.75;;;4.25;;
46563;SDS011;32291;52.010;4.446;2023-03-12T02:45:31;8.02;;;3.85;;
46563;SDS011;32291;52.010;4.446;2023-03-12T02:47:39;6.32;;;4.25;;
46563;SDS011;32291;52.010;4.446;2023-03-12T02:49:39;7.28;;;4.28;;
46563;SDS011;32291;52.010;4.446;2023-03-12T02:51:40;6.20;;;4.13;;
46563;SDS011;32291;52.010;4.446;2023-03-12T02:53:41;5.13;;;4.00;;
46563;SDS011;32291;52.010;4.446;2023-03-12T02:55:42;6.63;;;4.28;;
46563;SDS011;32291;52.010;4.446;2023-03-12T02:57:42;6.18;;;4.50;;
46563;SDS011;32291;52.010;4.446;2023-03-12T02:59:43;5.90;;;4.30;;
46563;SDS011;32291;52.010;4.446;2023-03-12T03:01:43;7.68;;;4.78;;
46563;SDS011;32291;52.010;4.446;2023-03-12T03:03:43;5.82;;;4.72;;
46563;SDS011;32291;52.010;4.446;2023-03-12T03:05:44;9.10;;;4.22;;
46563;SDS011;32291;52.010;4.446;2023-03-12T03:07:44;6.97;;;4.43;;
46563;SDS011;32291;52.010;4.446;2023-03-12T03:09:44;7.28;;;4.57;;
46563;SDS011;32291;52.010;4.446;2023-03-12T03:11:44;8.60;;;4.32;;
46563;SDS011;32291;52.010;4.446;2023-03-12T03:13:44;5.97;;;4.30;;
46563;SDS011;32291;52.010;4.446;2023-03-12T03:15:44;6.25;;;3.83;;
46563;SDS011;32291;52.010;4.446;2023-03-12T03:17:45;5.03;;;3.92;;
46563;SDS011;32291;52.010;4.446;2023-03-12T03:19:45;5.95;;;4.00;;
46563;SDS011;32291;52.010;4.446;2023-03-12T03:21:46;5.30;;;4.05;;
46563;SDS011;32291;52.010;4.446;2023-03-12T03:23:47;5.47;;;4.10;;
46563;SDS011;32291;52.010;4.446;2023-03-12T03:25:49;5.60;;;3.45;;
46563;SDS011;32291;52.010;4.446;2023-03-12T03:27:49;8.13;;;4.60;;
46563;SDS011;32291;52.010;4.446;2023-03-12T03:29:50;8.45;;;4.82;;
46563;SDS011;32291;52.010;4.446;2023-03-12T03:31:54;6.55;;;4.63;;
46563;SDS011;32291;52.010;4.446;2023-03-12T03:33:56;7.65;;;4.88;;
46563;SDS011;32291;52.010;4.446;2023-03-12T03:35:56;7.50;;;4.30;;
46563;SDS011;32291;52.010;4.446;2023-03-12T03:37:57;6.68;;;4.60;;
46563;SDS011;32291;52.010;4.446;2023-03-12T03:39:58;6.80;;;4.65;;
46563;SDS011;32291;52.010;4.446;2023-03-12T03:41:58;8.73;;;4.63;;
46563;SDS011;32291;52.010;4.446;2023-03-12T03:43:58;4.63;;;3.80;;
46563;SDS011;32291;52.010;4.446;2023-03-12T03:45:59;6.88;;;4.38;;
46563;SDS011;32291;52.010;4.446;2023-03-12T03:48:03;5.22;;;4.55;;
46563;SDS011;32291;52.010;4.446;2023-03-12T03:50:04;7.70;;;4.53;;
46563;SDS011;32291;52.010;4.446;2023-03-12T03:52:06;8.80;;;4.25;;
46563;SDS011;32291;52.010;4.446;2023-03-12T03:54:08;9.32;;;4.60;;
46563;SDS011;32291;52.010;4.446;2023-03-12T03:56:10;6.63;;;4.40;;
46563;SDS011;32291;52.010;4.446;2023-03-12T03:58:12;8.48;;;4.50;;
46563;SDS011;32291;52.010;4.446;2023-03-12T04:00:13;7.80;;;4.13;;
46563;SDS011;32291;52.010;4.446;2023-03-12T04:02:14;6.43;;;4.53;;
46563;SDS011;32291;52.010;4.446;2023-03-12T04:04:14;5.72;;;4.60;;
46563;SDS011;32291;52.010;4.446;2023-03-12T04:06:19;10.85;;;4.78;;
46563;SDS011;32291;52.010;4.446;2023-03-12T04:08:19;7.13;;;4.65;;
46563;SDS011;32291;52.010;4.446;2023-03-12T04:10:20;6.60;;;5.18;;
46563;SDS011;32291;52.010;4.446;2023-03-12T04:12:22;10.23;;;5.10;;
46563;SDS011;32291;52.010;4.446;2023-03-12T04:14:23;10.02;;;5.63;;
46563;SDS011;32291;52.010;4.446;2023-03-12T04:16:24;10.90;;;5.82;;
46563;SDS011;32291;52.010;4.446;2023-03-12T04:18:25;5.72;;;5.22;;
46563;SDS011;32291;52.010;4.446;2023-03-12T04:20:25;7.18;;;6.22;;
46563;SDS011;32291;52.010;4.446;2023-03-12T04:22:25;7.30;;;5.75;;
46563;SDS011;32291;52.010;4.446;2023-03-12T04:24:25;10.32;;;5.95;;
46563;SDS011;32291;52.010;4.446;2023-03-12T04:26:26;6.15;;;5.53;;
46563;SDS011;32291;52.010;4.446;2023-03-12T04:28:26;14.57;;;7.80;;
46563;SDS011;32291;52.010;4.446;2023-03-12T04:30:26;7.93;;;6.15;;
46563;SDS011;32291;52.010;4.446;2023-03-12T04:32:27;13.30;;;6.63;;
46563;SDS011;32291;52.010;4.446;2023-03-12T04:34:31;10.63;;;7.25;;
46563;SDS011;32291;52.010;4.446;2023-03-12T04:36:32;8.75;;;6.88;;
46563;SDS011;32291;52.010;4.446;2023-03-12T04:38:33;11.88;;;7.90;;
46563;SDS011;32291;52.010;4.446;2023-03-12T04:40:33;12.13;;;7.97;;
46563;SDS011;32291;52.010;4.446;2023-03-12T04:42:34;9.88;;;7.50;;
46563;SDS011;32291;52.010;4.446;2023-03-12T04:44:35;10.80;;;7.25;;
46563;SDS011;32291;52.010;4.446;2023-03-12T04:46:36;9.10;;;8.20;;
46563;SDS011;32291;52.010;4.446;2023-03-12T04:48:36;12.23;;;7.18;;
46563;SDS011;32291;52.010;4.446;2023-03-12T04:50:38;8.73;;;6.88;;
46563;SDS011;32291;52.010;4.446;2023-03-12T04:52:38;13.82;;;7.90;;
46563;SDS011;32291;52.010;4.446;2023-03-12T04:54:40;9.18;;;7.97;;
46563;SDS011;32291;52.010;4.446;2023-03-12T04:56:40;10.27;;;8.82;;
46563;SDS011;32291;52.010;4.446;2023-03-12T04:58:40;11.75;;;9.15;;
46563;SDS011;32291;52.010;4.446;2023-03-12T05:00:40;12.15;;;9.32;;
46563;SDS011;32291;52.010;4.446;2023-03-12T05:02:41;13.00;;;9.35;;
46563;SDS011;32291;52.010;4.446;2023-03-12T05:04:41;10.70;;;9.63;;
46563;SDS011;32291;52.010;4.446;2023-03-12T05:06:42;12.30;;;9.05;;
46563;SDS011;32291;52.010;4.446;2023-03-12T05:08:42;12.75;;;10.18;;
46563;SDS011;32291;52.010;4.446;2023-03-12T05:10:44;11.07;;;9.85;;
46563;SDS011;32291;52.010;4.446;2023-03-12T05:12:44;14.77;;;9.85;;
46563;SDS011;32291;52.010;4.446;2023-03-12T05:14:45;11.77;;;9.68;;
46563;SDS011;32291;52.010;4.446;2023-03-12T05:16:45;12.18;;;10.00;;
46563;SDS011;32291;52.010;4.446;2023-03-12T05:18:47;11.50;;;9.90;;
46563;SDS011;32291;52.010;4.446;2023-03-12T05:20:56;14.20;;;11.35;;
46563;SDS011;32291;52.010;4.446;2023-03-12T05:23:05;13.32;;;10.00;;
46563;SDS011;32291;52.010;4.446;2023-03-12T05:25:05;11.45;;;10.23;;
46563;SDS011;32291;52.010;4.446;2023-03-12T05:27:06;11.57;;;10.38;;
46563;SDS011;32291;52.010;4.446;2023-03-12T05:29:07;15.05;;;9.65;;
46563;SDS011;32291;52.010;4.446;2023-03-12T05:31:11;14.38;;;10.02;;
46563;SDS011;32291;52.010;4.446;2023-03-12T05:33:12;13.20;;;10.45;;
46563;SDS011;32291;52.010;4.446;2023-03-12T05:35:13;12.70;;;10.82;;
46563;SDS011;32291;52.010;4.446;2023-03-12T05:37:13;14.38;;;11.07;;
46563;SDS011;32291;52.010;4.446;2023-03-12T05:39:13;15.07;;;10.63;;
46563;SDS011;32291;52.010;4.446;2023-03-12T05:41:18;13.40;;;10.95;;
46563;SDS011;32291;52.010;4.446;2023-03-12T05:43:25;14.57;;;11.23;;
46563;SDS011;32291;52.010;4.446;2023-03-12T05:45:26;12.98;;;11.18;;
46563;SDS011;32291;52.010;4.446;2023-03-12T05:47:27;13.27;;;11.65;;
46563;SDS011;32291;52.010;4.446;2023-03-12T05:49:27;12.80;;;11.07;;
46563;SDS011;32291;52.010;4.446;2023-03-12T05:51:29;13.13;;;11.15;;
46563;SDS011;32291;52.010;4.446;2023-03-12T05:53:29;13.40;;;11.45;;
46563;SDS011;32291;52.010;4.446;2023-03-12T05:55:32;13.70;;;10.35;;
46563;SDS011;32291;52.010;4.446;2023-03-12T05:57:36;16.48;;;11.27;;
46563;SDS011;32291;52.010;4.446;2023-03-12T05:59:38;13.15;;;11.13;;
46563;SDS011;32291;52.010;4.446;2023-03-12T06:01:42;11.43;;;9.13;;
46563;SDS011;32291;52.010;4.446;2023-03-12T06:03:43;13.10;;;11.55;;
46563;SDS011;32291;52.010;4.446;2023-03-12T06:05:44;13.30;;;10.75;;
46563;SDS011;32291;52.010;4.446;2023-03-12T06:07:44;16.45;;;12.27;;
46563;SDS011;32291;52.010;4.446;2023-03-12T06:09:45;19.08;;;12.10;;
46563;SDS011;32291;52.010;4.446;2023-03-12T06:11:45;13.50;;;12.23;;
46563;SDS011;32291;52.010;4.446;2023-03-12T06:13:46;13.40;;;11.23;;
46563;SDS011;32291;52.010;4.446;2023-03-12T06:15:46;14.60;;;12.82;;
46563;SDS011;32291;52.010;4.446;2023-03-12T06:17:46;14.85;;;13.18;;
46563;SDS011;32291;52.010;4.446;2023-03-12T06:19:49;15.57;;;13.38;;
46563;SDS011;32291;52.010;4.446;2023-03-12T06:21:50;14.75;;;11.93;;
46563;SDS011;32291;52.010;4.446;2023-03-12T06:23:50;15.02;;;13.52;;
46563;SDS011;32291;52.010;4.446;2023-03-12T06:25:51;15.40;;;13.80;;
46563;SDS011;32291;52.010;4.446;2023-03-12T06:27:51;15.10;;;13.70;;
46563;SDS011;32291;52.010;4.446;2023-03-12T06:29:52;16.13;;;14.65;;
46563;SDS011;32291;52.010;4.446;2023-03-12T06:31:56;17.48;;;15.38;;
46563;SDS011;32291;52.010;4.446;2023-03-12T06:33:56;16.98;;;15.23;;
46563;SDS011;32291;52.010;4.446;2023-03-12T06:35:57;18.02;;;16.13;;
46563;SDS011;32291;52.010;4.446;2023-03-12T06:37:58;16.52;;;15.07;;
46563;SDS011;32291;52.010;4.446;2023-03-12T06:39:59;16.42;;;14.82;;
46563;SDS011;32291;52.010;4.446;2023-03-12T06:42:01;18.05;;;16.20;;
46563;SDS011;32291;52.010;4.446;2023-03-12T06:44:01;17.38;;;15.60;;
46563;SDS011;32291;52.010;4.446;2023-03-12T06:46:02;17.50;;;15.88;;
46563;SDS011;32291;52.010;4.446;2023-03-12T06:48:03;16.90;;;15.10;;
46563;SDS011;32291;52.010;4.446;2023-03-12T06:50:04;17.42;;;15.63;;
46563;SDS011;32291;52.010;4.446;2023-03-12T06:52:04;18.55;;;16.75;;
46563;SDS011;32291;52.010;4.446;2023-03-12T06:54:05;17.25;;;15.55;;
46563;SDS011;32291;52.010;4.446;2023-03-12T06:56:06;20.23;;;17.25;;
46563;SDS011;32291;52.010;4.446;2023-03-12T06:58:07;19.38;;;16.30;;
46563;SDS011;32291;52.010;4.446;2023-03-12T07:00:07;18.00;;;16.13;;
46563;SDS011;32291;52.010;4.446;2023-03-12T07:02:09;17.70;;;15.63;;
46563;SDS011;32291;52.010;4.446;2023-03-12T07:04:10;18.75;;;16.80;;
46563;SDS011;32291;52.010;4.446;2023-03-12T07:06:14;19.90;;;18.00;;
46563;SDS011;32291;52.010;4.446;2023-03-12T07:08:17;21.50;;;18.73;;
46563;SDS011;32291;52.010;4.446;2023-03-12T07:10:18;19.48;;;17.63;;
46563;SDS011;32291;52.010;4.446;2023-03-12T07:12:18;21.48;;;19.23;;
46563;SDS011;32291;52.010;4.446;2023-03-12T07:14:18;24.73;;;19.77;;
46563;SDS011;32291;52.010;4.446;2023-03-12T07:16:19;22.38;;;19.98;;
46563;SDS011;32291;52.010;4.446;2023-03-12T07:18:19;22.10;;;19.80;;
46563;SDS011;32291;52.010;4.446;2023-03-12T07:20:19;22.70;;;19.90;;
46563;SDS011;32291;52.010;4.446;2023-03-12T07:22:23;23.35;;;20.08;;
46563;SDS011;32291;52.010;4.446;2023-03-12T07:24:23;23.42;;;20.73;;
46563;SDS011;32291;52.010;4.446;2023-03-12T07:26:24;26.88;;;22.20;;
46563;SDS011;32291;52.010;4.446;2023-03-12T07:28:24;24.65;;;22.05;;
46563;SDS011;32291;52.010;4.446;2023-03-12T07:30:25;27.02;;;22.70;;
46563;SDS011;32291;52.010;4.446;2023-03-12T07:32:25;26.10;;;22.15;;
46563;SDS011;32291;52.010;4.446;2023-03-12T07:34:25;32.08;;;23.13;;
46563;SDS011;32291;52.010;4.446;2023-03-12T07:36:25;26.88;;;22.70;;
46563;SDS011;32291;52.010;4.446;2023-03-12T07:38:25;29.83;;;25.30;;
46563;SDS011;32291;52.010;4.446;2023-03-12T07:40:26;27.52;;;24.27;;
46563;SDS011;32291;52.010;4.446;2023-03-12T07:42:26;32.13;;;25.48;;
46563;SDS011;32291;52.010;4.446;2023-03-12T07:44:27;35.15;;;26.70;;
46563;SDS011;32291;52.010;4.446;2023-03-12T07:46:27;32.13;;;27.48;;
46563;SDS011;32291;52.010;4.446;2023-03-12T07:48:28;33.33;;;26.88;;
46563;SDS011;32291;52.010;4.446;2023-03-12T07:50:28;32.45;;;27.08;;
46563;SDS011;32291;52.010;4.446;2023-03-12T07:52:28;38.00;;;29.23;;
46563;SDS011;32291;52.010;4.446;2023-03-12T07:54:28;38.67;;;30.35;;
46563;SDS011;32291;52.010;4.446;2023-03-12T07:56:29;38.83;;;30.17;;
46563;SDS011;32291;52.010;4.446;2023-03-12T07:58:30;44.50;;;31.30;;
46563;SDS011;32291;52.010;4.446;2023-03-12T08:00:30;37.08;;;29.83;;
46563;SDS011;32291;52.010;4.446;2023-03-12T08:02:32;46.45;;;29.40;;
46563;SDS011;32291;52.010;4.446;2023-03-12T08:04:33;40.40;;;31.05;;
46563;SDS011;32291;52.010;4.446;2023-03-12T08:06:34;38.63;;;28.58;;
46563;SDS011;32291;52.010;4.446;2023-03-12T08:08:35;43.15;;;30.95;;
46563;SDS011;32291;52.010;4.446;2023-03-12T08:10:35;42.28;;;31.90;;
46563;SDS011;32291;52.010;4.446;2023-03-12T08:12:37;41.30;;;30.63;;
46563;SDS011;32291;52.010;4.446;2023-03-12T08:14:37;47.05;;;32.30;;
46563;SDS011;32291;52.010;4.446;2023-03-12T08:16:37;39.95;;;30.25;;
46563;SDS011;32291;52.010;4.446;2023-03-12T08:18:37;45.13;;;31.88;;
46563;SDS011;32291;52.010;4.446;2023-03-12T08:20:38;44.80;;;32.95;;
46563;SDS011;32291;52.010;4.446;2023-03-12T08:22:38;43.42;;;32.85;;
46563;SDS011;32291;52.010;4.446;2023-03-12T08:24:39;45.20;;;33.95;;
46563;SDS011;32291;52.010;4.446;2023-03-12T08:26:39;44.63;;;31.40;;
46563;SDS011;32291;52.010;4.446;2023-03-12T08:28:39;47.15;;;31.73;;
46563;SDS011;32291;52.010;4.446;2023-03-12T08:30:45;45.88;;;32.60;;
46563;SDS011;32291;52.010;4.446;2023-03-12T08:32:49;42.92;;;31.10;;
46563;SDS011;32291;52.010;4.446;2023-03-12T08:34:49;49.78;;;33.45;;
46563;SDS011;32291;52.010;4.446;2023-03-12T08:36:50;48.05;;;31.58;;
46563;SDS011;32291;52.010;4.446;2023-03-12T08:38:51;47.42;;;33.35;;
46563;SDS011;32291;52.010;4.446;2023-03-12T08:40:58;41.20;;;30.17;;
46563;SDS011;32291;52.010;4.446;2023-03-12T08:42:59;43.47;;;31.35;;
46563;SDS011;32291;52.010;4.446;2023-03-12T08:44:59;44.33;;;30.60;;
46563;SDS011;32291;52.010;4.446;2023-03-12T08:47:01;42.20;;;31.08;;
46563;SDS011;32291;52.010;4.446;2023-03-12T08:49:02;45.95;;;32.58;;
46563;SDS011;32291;52.010;4.446;2023-03-12T08:51:02;45.53;;;30.50;;
46563;SDS011;32291;52.010;4.446;2023-03-12T08:53:03;39.85;;;30.77;;
46563;SDS011;32291;52.010;4.446;2023-03-12T08:55:03;45.42;;;30.73;;
46563;SDS011;32291;52.010;4.446;2023-03-12T08:57:04;36.70;;;28.65;;
46563;SDS011;32291;52.010;4.446;2023-03-12T08:59:05;40.75;;;29.92;;
46563;SDS011;32291;52.010;4.446;2023-03-12T09:01:08;39.00;;;27.25;;
46563;SDS011;32291;52.010;4.446;2023-03-12T09:03:13;33.95;;;26.70;;
46563;SDS011;32291;52.010;4.446;2023-03-12T09:05:14;36.33;;;24.48;;
46563;SDS011;32291;52.010;4.446;2023-03-12T09:07:16;30.35;;;20.73;;
46563;SDS011;32291;52.010;4.446;2023-03-12T09:09:17;28.73;;;17.13;;
46563;SDS011;32291;52.010;4.446;2023-03-12T09:11:17;29.08;;;14.45;;
46563;SDS011;32291;52.010;4.446;2023-03-12T09:13:17;28.08;;;12.27;;
46563;SDS011;32291;52.010;4.446;2023-03-12T09:15:18;23.45;;;10.02;;
46563;SDS011;32291;52.010;4.446;2023-03-12T09:17:18;38.75;;;11.82;;
46563;SDS011;32291;52.010;4.446;2023-03-12T09:19:20;18.70;;;7.90;;
46563;SDS011;32291;52.010;4.446;2023-03-12T09:21:20;23.60;;;8.80;;
46563;SDS011;32291;52.010;4.446;2023-03-12T09:23:21;15.95;;;8.00;;
46563;SDS011;32291;52.010;4.446;2023-03-12T09:25:21;29.88;;;9.43;;
46563;SDS011;32291;52.010;4.446;2023-03-12T09:27:21;28.85;;;9.13;;
46563;SDS011;32291;52.010;4.446;2023-03-12T09:29:22;29.35;;;9.23;;
46563;SDS011;32291;52.010;4.446;2023-03-12T09:31:25;30.95;;;8.50;;
46563;SDS011;32291;52.010;4.446;2023-03-12T09:33:27;22.23;;;8.52;;
46563;SDS011;32291;52.010;4.446;2023-03-12T09:35:27;22.15;;;8.27;;
46563;SDS011;32291;52.010;4.446;2023-03-12T09:37:28;23.52;;;7.72;;
46563;SDS011;32291;52.010;4.446;2023-03-12T09:39:28;18.83;;;7.35;;
46563;SDS011;32291;52.010;4.446;2023-03-12T09:41:32;18.70;;;7.47;;
46563;SDS011;32291;52.010;4.446;2023-03-12T09:43:44;26.35;;;6.78;;
46563;SDS011;32291;52.010;4.446;2023-03-12T09:45:50;17.15;;;5.70;;
46563;SDS011;32291;52.010;4.446;2023-03-12T09:48:02;21.17;;;5.88;;
46563;SDS011;32291;52.010;4.446;2023-03-12T09:50:18;24.70;;;6.90;;
46563;SDS011;32291;52.010;4.446;2023-03-12T09:52:39;21.40;;;6.75;;
46563;SDS011;32291;52.010;4.446;2023-03-12T09:55:00;21.33;;;6.43;;
46563;SDS011;32291;52.010;4.446;2023-03-12T09:57:11;24.75;;;7.80;;
46563;SDS011;32291;52.010;4.446;2023-03-12T09:59:25;23.25;;;6.60;;
46563;SDS011;32291;52.010;4.446;2023-03-12T10:06:28;23.25;;;6.32;;
46563;SDS011;32291;52.010;4.446;2023-03-12T10:16:22;23.20;;;6.25;;
46563;SDS011;32291;52.010;4.446;2023-03-12T10:26:21;22.30;;;5.95;;
46563;SDS011;32291;52.010;4.446;2023-03-12T10:28:44;31.95;;;7.03;;
46563;SDS011;32291;52.010;4.446;2023-03-12T10:30:59;23.70;;;6.40;;
46563;SDS011;32291;52.010;4.446;2023-03-12T10:33:09;23.88;;;5.20;;
46563;SDS011;32291;52.010;4.446;2023-03-12T10:35:20;24.52;;;7.63;;
46563;SDS011;32291;52.010;4.446;2023-03-12T10:37:52;19.92;;;5.75;;
46563;SDS011;32291;52.010;4.446;2023-03-12T10:39:56;18.48;;;5.50;;
46563;SDS011;32291;52.010;4.446;2023-03-12T10:41:56;17.40;;;4.45;;
46563;SDS011;32291;52.010;4.446;2023-03-12T10:44:00;30.05;;;5.60;;
46563;SDS011;32291;52.010;4.446;2023-03-12T10:48:44;22.35;;;5.97;;
46563;SDS011;32291;52.010;4.446;2023-03-12T10:51:02;19.92;;;5.07;;
46563;SDS011;32291;52.010;4.446;2023-03-12T10:53:21;21.40;;;6.38;;
46563;SDS011;32291;52.010;4.446;2023-03-12T10:55:40;25.08;;;6.78;;
46563;SDS011;32291;52.010;4.446;2023-03-12T10:57:51;24.92;;;5.68;;
46563;SDS011;32291;52.010;4.446;2023-03-12T10:59:53;30.33;;;5.88;;
46563;SDS011;32291;52.010;4.446;2023-03-12T11:04:43;27.67;;;5.47;;
46563;SDS011;32291;52.010;4.446;2023-03-12T11:09:27;31.73;;;6.00;;
46563;SDS011;32291;52.010;4.446;2023-03-12T11:11:38;21.90;;;4.88;;
46563;SDS011;32291;52.010;4.446;2023-03-12T11:13:40;28.98;;;6.30;;
46563;SDS011;32291;52.010;4.446;2023-03-12T11:15:46;26.13;;;6.25;;
46563;SDS011;32291;52.010;4.446;2023-03-12T11:17:47;19.85;;;5.55;;
46563;SDS011;32291;52.010;4.446;2023-03-12T11:20:12;20.52;;;6.57;;
46563;SDS011;32291;52.010;4.446;2023-03-12T11:22:33;22.08;;;5.82;;
46563;SDS011;32291;52.010;4.446;2023-03-12T11:24:34;26.30;;;5.22;;
46563;SDS011;32291;52.010;4.446;2023-03-12T11:29:25;27.60;;;5.80;;
46563;SDS011;32291;52.010;4.446;2023-03-12T11:31:33;25.20;;;5.68;;
46563;SDS011;32291;52.010;4.446;2023-03-12T11:33:47;22.85;;;4.80;;
46563;SDS011;32291;52.010;4.446;2023-03-12T11:38:02;17.60;;;5.15;;
46563;SDS011;32291;52.010;4.446;2023-03-12T11:52:26;28.15;;;6.15;;
46563;SDS011;32291;52.010;4.446;2023-03-12T12:12:13;24.48;;;5.30;;
46563;SDS011;32291;52.010;4.446;2023-03-12T12:14:36;25.45;;;6.45;;
46563;SDS011;32291;52.010;4.446;2023-03-12T12:29:27;25.73;;;5.85;;
46563;SDS011;32291;52.010;4.446;2023-03-12T12:31:54;18.33;;;4.53;;
46563;SDS011;32291;52.010;4.446;2023-03-12T12:34:13;25.23;;;5.88;;
46563;SDS011;32291;52.010;4.446;2023-03-12T12:36:38;24.85;;;7.18;;
46563;SDS011;32291;52.010;4.446;2023-03-12T12:38:48;22.58;;;4.15;;
46563;SDS011;32291;52.010;4.446;2023-03-12T12:41:10;22.85;;;5.22;;
46563;SDS011;32291;52.010;4.446;2023-03-12T12:45:34;18.95;;;4.90;;
46563;SDS011;32291;52.010;4.446;2023-03-12T12:47:46;25.58;;;7.05;;
46563;SDS011;32291;52.010;4.446;2023-03-12T12:49:57;25.13;;;6.07;;
46563;SDS011;32291;52.010;4.446;2023-03-12T12:52:00;25.17;;;5.78;;
46563;SDS011;32291;52.010;4.446;2023-03-12T12:54:06;25.52;;;5.70;;
46563;SDS011;32291;52.010;4.446;2023-03-12T13:01:33;20.85;;;6.10;;
46563;SDS011;32291;52.010;4.446;2023-03-12T13:03:38;21.17;;;4.88;;
46563;SDS011;32291;52.010;4.446;2023-03-12T13:05:40;19.58;;;4.72;;
46563;SDS011;32291;52.010;4.446;2023-03-12T13:08:03;30.67;;;6.30;;
46563;SDS011;32291;52.010;4.446;2023-03-12T13:10:57;17.75;;;4.93;;
46563;SDS011;32291;52.010;4.446;2023-03-12T13:12:49;25.42;;;6.15;;
46563;SDS011;32291;52.010;4.446;2023-03-12T13:15:32;20.50;;;5.15;;
46563;SDS011;32291;52.010;4.446;2023-03-12T13:17:34;23.88;;;5.65;;
46563;SDS011;32291;52.010;4.446;2023-03-12T13:20:18;22.83;;;5.07;;
46563;SDS011;32291;52.010;4.446;2023-03-12T13:22:51;18.70;;;4.82;;
46563;SDS011;32291;52.010;4.446;2023-03-12T13:30:51;18.40;;;3.63;;
46563;SDS011;32291;52.010;4.446;2023-03-12T13:34:57;23.13;;;5.30;;
46563;SDS011;32291;52.010;4.446;2023-03-12T13:37:16;25.73;;;5.10;;
46563;SDS011;32291;52.010;4.446;2023-03-12T13:39:34;25.85;;;5.47;;
46563;SDS011;32291;52.010;4.446;2023-03-12T13:41:41;25.85;;;5.90;;
46563;SDS011;32291;52.010;4.446;2023-03-12T13:46:32;22.92;;;5.88;;
46563;SDS011;32291;52.010;4.446;2023-03-12T13:48:45;20.63;;;4.50;;
46563;SDS011;32291;52.010;4.446;2023-03-12T13:50:59;14.77;;;3.90;;
46563;SDS011;32291;52.010;4.446;2023-03-12T13:53:14;24.65;;;5.32;;
46563;SDS011;32291;52.010;4.446;2023-03-12T13:55:20;31.13;;;4.95;;
46563;SDS011;32291;52.010;4.446;2023-03-12T13:57:38;21.98;;;4.53;;